YPCC

Cocos (Keeling) Islands Airport

Cocos (Keeling) Islands, Australia
METAR YPCC 270748Z AUTO 09015KT 5000 RA SCT017 BKN033 OVC060 27/24 Q1011
Observed Flight Rules
May-27 @ 07:48 UTC (11 minutes ago) Marginal Visual Flight Rules
Wind Visibility Clouds Conditions
90° at 15 knots 5,005 meters
  • Scattered at 1,700' AGL
  • Broken at 3,300' AGL
  • Overcast at 6,000' AGL
  • Rain
Temperatures Readings
Current 27°C / 81°F
Dewpoint 24°C / 75°F
Humidity 84%
Altimeter 29.85" Hg
Pressure 1011 hPa
Elevation 3
METAR YPCC 270748Z AUTO 09015KT 5000 RA SCT017 BKN033 OVC060 27/24 Q1011
Observed Flight Rules
May-27 @ 07:48 UTC
(11 minutes ago)
MVFR
Wind Visibility
90° at 15 knots 5,005 meters
Clouds
  • Scattered at 1,700' AGL
  • Broken at 3,300' AGL
  • Overcast at 6,000' AGL
Conditions
  • Rain
Temperature Dewpoint
27°C / 81°F 24°C / 75°F
Humidity Altimeter Pressure
84% 29.85" Hg 1011 hPa